Menalon — SXCH — position and weather

sailwx.info

Track history (hours):
 
Tides and Currents Weather Stations Pressure Air Temp Water Temp Dewpoint Dewpoint Depression Visibility Wind Speed Wind Dir Waves Ship Positions

Menalon

Last reported at 2014-Nov-23 06:33 UTC. Time now 2014-Nov-23 07:34 UTC.
Position N 37°57' E 023°34'.

Length 83 m; draft 4 m.

Type: Ship (hazmat cat C). MMSI: 239741000.

Date/timePositionNaut miles runAvg speedWind from/ knotsBaromVisibWave heightAir tempDewpointWater temp
2014-Nov-23 06:33N 37°57' E 023°34'0 0.0
2014-Nov-23 05:34N 37°57' E 023°34'0 0.0
2014-Nov-23 04:34N 37°57' E 023°34'0 0.0
2014-Nov-23 03:33N 37°57' E 023°34'0 0.0
2014-Nov-23 02:33N 37°57' E 023°34'0 0.0
2014-Nov-23 01:33N 37°57' E 023°34'0 0.0
2014-Nov-23 00:33N 37°57' E 023°34'0 0.0
2014-Nov-22 23:33N 37°57' E 023°34'0 0.0
2014-Nov-22 22:33N 37°57' E 023°34'0 0.0
2014-Nov-22 21:33N 37°57' E 023°34'0 0.0
2014-Nov-22 20:33N 37°57' E 023°34'0 0.0
2014-Nov-22 19:34N 37°57' E 023°34'0 0.0
2014-Nov-22 18:33N 37°57' E 023°34'0 0.0
2014-Nov-22 17:33N 37°57' E 023°34'0 0.0
2014-Nov-22 16:34N 37°57' E 023°34'0 0.0
2014-Nov-22 15:33N 37°57' E 023°34'0 0.0
2014-Nov-22 14:33N 37°57' E 023°34'0 0.0
2014-Nov-22 13:34N 37°57' E 023°34'0 0.0
2014-Nov-22 12:34N 37°57' E 023°34'2 1.8
2014-Nov-22 11:34N 37°56' E 023°34'10 9.5
2014-Nov-22 10:33N 37°52' E 023°23'1210.4
2014-Nov-22 09:27N 37°54' E 023°08'2 2.7
2014-Nov-22 08:33N 37°55' E 023°05'0 0.0
2014-Nov-22 07:33N 37°55' E 023°05'0 0.0
2014-Nov-22 06:34N 37°55' E 023°05'0 0.0
2014-Nov-22 05:33N 37°55' E 023°05'0 0.0
2014-Nov-22 04:33N 37°55' E 023°05'0 0.0
2014-Nov-22 03:33N 37°55' E 023°05'0 0.0
2014-Nov-22 02:33N 37°55' E 023°05'0 0.0
2014-Nov-22 01:33N 37°55' E 023°05'0 0.0
2014-Nov-22 00:33N 37°55' E 023°05'12 1.0
2014-Nov-21 12:22N 37°53' E 023°20'810.1
2014-Nov-21 11:33N 37°53' E 023°30'2 1.7
2014-Nov-21 10:33N 37°52' E 023°32'0 0.0
2014-Nov-21 09:33N 37°52' E 023°32'0 0.0
2014-Nov-21 08:34N 37°52' E 023°32'0 0.0
2014-Nov-21 07:34N 37°52' E 023°32'0 0.3
2014-Nov-21 06:34N 37°51' E 023°32'6 6.1
2014-Nov-21 05:34N 37°57' E 023°35'0 0.3
2014-Nov-21 04:34N 37°57' E 023°34'0 0.0
2014-Nov-21 03:33N 37°57' E 023°34'0 0.0
2014-Nov-21 02:33N 37°57' E 023°34'0 0.0
2014-Nov-21 01:33N 37°57' E 023°34'0 0.0
2014-Nov-21 00:32N 37°57' E 023°34'0 0.0
2014-Nov-20 23:33N 37°57' E 023°34'0 0.0
2014-Nov-20 22:33N 37°57' E 023°34'0 0.0
2014-Nov-20 21:33N 37°57' E 023°34'0 0.0
2014-Nov-20 20:33N 37°57' E 023°34'0 0.0
2014-Nov-20 19:33N 37°57' E 023°34'0 0.0
2014-Nov-20 18:34N 37°57' E 023°34'0 0.0
2014-Nov-20 17:33N 37°57' E 023°34'0 0.0
2014-Nov-20 16:33N 37°57' E 023°34'0 0.0
2014-Nov-20 15:34N 37°57' E 023°34'2 1.6
2014-Nov-20 14:33N 37°57' E 023°36'0 0.1
2014-Nov-20 13:33N 37°58' E 023°36'0 0.0
2014-Nov-20 12:33N 37°58' E 023°36'1 0.9
2014-Nov-20 11:33N 37°57' E 023°36'1 0.8
2014-Nov-20 10:33N 37°57' E 023°34'0 0.0
2014-Nov-20 09:33N 37°57' E 023°35'0 0.0
2014-Nov-20 08:33N 37°57' E 023°35'5 5.4
2014-Nov-20 07:34N 37°52' E 023°32'0 0.0
2014-Nov-20 06:33N 37°52' E 023°32'5 5.1
2014-Nov-20 05:32N 37°57' E 023°35'1 0.5
2014-Nov-20 04:31N 37°57' E 023°35'0 0.0
2014-Nov-20 03:33N 37°57' E 023°35'0 0.0
2014-Nov-20 02:33N 37°57' E 023°35'0 0.1
2014-Nov-20 01:33N 37°57' E 023°35'0 0.0
2014-Nov-20 00:34N 37°57' E 023°35'0 0.0
2014-Nov-19 23:33N 37°57' E 023°35'0 0.0
2014-Nov-19 22:33N 37°57' E 023°35'0 0.0
2014-Nov-19 21:34N 37°57' E 023°34'0 0.0
2014-Nov-19 20:34N 37°57' E 023°34'0 0.0
2014-Nov-19 19:34N 37°57' E 023°34'0 0.0
2014-Nov-19 18:34N 37°57' E 023°34'0 0.0
2014-Nov-19 17:34N 37°57' E 023°34'0 0.1
2014-Nov-19 16:33N 37°57' E 023°34'0 0.0
2014-Nov-19 15:33N 37°57' E 023°34'0 0.0
2014-Nov-19 14:34N 37°57' E 023°34'0 0.0
2014-Nov-19 13:34N 37°57' E 023°34'0 0.0
2014-Nov-19 12:33N 37°57' E 023°34'0 0.0
2014-Nov-19 11:33N 37°57' E 023°34'0 0.0
2014-Nov-19 10:33N 37°57' E 023°34'0 0.0
2014-Nov-19 09:34N 37°57' E 023°34'0 0.0
2014-Nov-19 08:33N 37°57' E 023°34'0 0.0
2014-Nov-19 07:33N 37°57' E 023°34'0 0.0
2014-Nov-19 06:33N 37°57' E 023°34'0 0.0
2014-Nov-19 05:33N 37°57' E 023°34'0 0.0
2014-Nov-19 04:33N 37°57' E 023°34'0 0.0
2014-Nov-19 03:34N 37°57' E 023°34'0 0.0
2014-Nov-19 02:34N 37°57' E 023°34'0 0.0
2014-Nov-19 01:34N 37°57' E 023°34'0 0.0
2014-Nov-19 00:33N 37°57' E 023°34'0 0.0
2014-Nov-18 23:33N 37°57' E 023°34'0 0.0
2014-Nov-18 22:33N 37°57' E 023°34'0 0.0
2014-Nov-18 21:33N 37°57' E 023°34'0 0.0
2014-Nov-18 20:33N 37°57' E 023°34'0 0.0
2014-Nov-18 19:33N 37°57' E 023°34'1 0.9
2014-Nov-18 18:34N 37°56' E 023°35'4 4.3
2014-Nov-18 17:33N 37°52' E 023°33'0 0.0
2014-Nov-18 16:33N 37°52' E 023°33'0 0.0
2014-Nov-18 15:33N 37°52' E 023°33'0 0.0
2014-Nov-18 14:33N 37°52' E 023°33'0 0.0
2014-Nov-18 13:33N 37°52' E 023°33'0 0.0
2014-Nov-18 12:33N 37°52' E 023°33'3 3.1
2014-Nov-18 11:33N 37°55' E 023°34'2 2.1
2014-Nov-18 10:33N 37°57' E 023°35'0 0.0
2014-Nov-18 09:34N 37°57' E 023°35'0 0.1
2014-Nov-18 08:34N 37°57' E 023°35'0 0.1
2014-Nov-18 07:33N 37°57' E 023°35'0 0.1
2014-Nov-18 06:33N 37°57' E 023°35'1 0.7
2014-Nov-18 05:33N 37°57' E 023°34'0 0.0
2014-Nov-18 04:32N 37°57' E 023°34'0 0.0
2014-Nov-18 03:33N 37°57' E 023°34'0 0.0
2014-Nov-18 02:33N 37°57' E 023°34'3 2.8
2014-Nov-18 01:33N 37°55' E 023°33'9 9.4
2014-Nov-18 00:34N 37°52' E 023°22'1210.2
2014-Nov-17 23:24N 37°54' E 023°07'2 0.3
2014-Nov-17 18:09N 37°55' E 023°05'0 0.0
2014-Nov-17 17:19N 37°55' E 023°05'0 0.0
2014-Nov-17 16:34N 37°55' E 023°05'0 0.0
2014-Nov-17 15:33N 37°55' E 023°05'0 0.0
2014-Nov-17 14:33N 37°55' E 023°05'0 0.0
2014-Nov-17 13:33N 37°55' E 023°05'0 0.0
2014-Nov-17 12:33N 37°55' E 023°05'0 0.0
2014-Nov-17 11:33N 37°55' E 023°05'0 0.0
2014-Nov-17 10:33N 37°55' E 023°05'0 0.0
2014-Nov-17 09:33N 37°55' E 023°05'0 0.0
2014-Nov-17 08:31N 37°55' E 023°05'12 5.3
2014-Nov-17 06:21N 37°53' E 023°20'810.1
2014-Nov-17 05:33N 37°53' E 023°30'6 6.0
2014-Nov-17 04:33N 37°57' E 023°34'0 0.0
2014-Nov-17 03:33N 37°57' E 023°34'0 0.0
2014-Nov-17 02:33N 37°57' E 023°34'0 0.0
2014-Nov-17 01:34N 37°57' E 023°34'0 0.0
2014-Nov-17 00:33N 37°57' E 023°34'0 0.0
2014-Nov-16 23:34N 37°57' E 023°34'0 0.0
2014-Nov-16 22:33N 37°57' E 023°34'0 0.0
2014-Nov-16 21:33N 37°57' E 023°34'0 0.0
2014-Nov-16 20:33N 37°57' E 023°34'0 0.0
2014-Nov-16 19:34N 37°57' E 023°34'0 0.0
2014-Nov-16 18:33N 37°57' E 023°34'0 0.0
2014-Nov-16 17:33N 37°57' E 023°35'0 0.0
2014-Nov-16 16:34N 37°57' E 023°35'0 0.0
2014-Nov-16 15:33N 37°57' E 023°34'0 0.0
2014-Nov-16 14:33N 37°57' E 023°34'0 0.0
2014-Nov-16 13:33N 37°57' E 023°35'0 0.0
2014-Nov-16 12:33N 37°57' E 023°35'0 0.0
2014-Nov-16 11:33N 37°57' E 023°35'0 0.0
2014-Nov-16 10:33N 37°57' E 023°35'0 0.0
2014-Nov-16 09:33N 37°57' E 023°34'0 0.0
2014-Nov-16 08:33N 37°57' E 023°34'0 0.0
2014-Nov-16 07:33N 37°57' E 023°34'0 0.1
2014-Nov-16 06:33N 37°57' E 023°35'0 0.0
2014-Nov-16 05:33N 37°57' E 023°35'0 0.0
2014-Nov-16 04:33N 37°57' E 023°34'0 0.0
2014-Nov-16 03:33N 37°57' E 023°34'0 0.0
2014-Nov-16 02:34N 37°57' E 023°35'0 0.0
2014-Nov-16 01:34N 37°57' E 023°34'0 0.0
2014-Nov-16 00:33N 37°57' E 023°34'0 0.0
2014-Nov-15 23:33N 37°57' E 023°34'0 0.0
2014-Nov-15 22:34N 37°57' E 023°35'0 0.0
2014-Nov-15 21:33N 37°57' E 023°35'0 0.0
2014-Nov-15 20:33N 37°57' E 023°35'0 0.0
2014-Nov-15 19:33N 37°57' E 023°35'0 0.0
2014-Nov-15 18:33N 37°57' E 023°35'0 0.0
2014-Nov-15 17:33N 37°57' E 023°35'0 0.0
2014-Nov-15 16:33N 37°57' E 023°35'0 0.0
2014-Nov-15 15:33N 37°57' E 023°35'0 0.0
2014-Nov-15 14:33N 37°57' E 023°35'0 0.0
2014-Nov-15 13:33N 37°57' E 023°35'0 0.0
2014-Nov-15 12:33N 37°57' E 023°35'0 0.0
2014-Nov-15 11:33N 37°57' E 023°35'0 0.0
2014-Nov-15 10:33N 37°57' E 023°35'0 0.0
2014-Nov-15 09:33N 37°57' E 023°35'0 0.0
2014-Nov-15 08:33N 37°57' E 023°35'0 0.0
2014-Nov-15 07:34N 37°57' E 023°35'0 0.0
2014-Nov-15 06:34N 37°57' E 023°35'0 0.0
2014-Nov-15 05:33N 37°57' E 023°35'0 0.0
2014-Nov-15 04:33N 37°57' E 023°35'0 0.0
2014-Nov-15 03:34N 37°57' E 023°35'0 0.0
2014-Nov-15 02:33N 37°57' E 023°35'0 0.0
2014-Nov-15 01:34N 37°57' E 023°35'0 0.0
2014-Nov-15 00:33N 37°57' E 023°35'0 0.0
2014-Nov-14 23:34N 37°57' E 023°35'0 0.0
2014-Nov-14 22:33N 37°57' E 023°35'0 0.0
2014-Nov-14 21:34N 37°57' E 023°35'0 0.0
2014-Nov-14 20:33N 37°57' E 023°35'0 0.0
2014-Nov-14 19:33N 37°57' E 023°35'0 0.0
2014-Nov-14 18:33N 37°57' E 023°35'0 0.0
2014-Nov-14 17:33N 37°57' E 023°35'0 0.0
2014-Nov-14 16:33N 37°57' E 023°35'0 0.0
2014-Nov-14 15:33N 37°57' E 023°35'0 0.0
2014-Nov-14 14:33N 37°57' E 023°35'0 0.0
2014-Nov-14 12:33N 37°57' E 023°35'0 0.0
2014-Nov-14 11:31N 37°57' E 023°35'0 0.0
2014-Nov-14 10:32N 37°57' E 023°35'0 0.0
2014-Nov-14 09:33N 37°57' E 023°35'0 0.0
2014-Nov-14 08:33N 37°57' E 023°35'0 0.0
2014-Nov-14 07:33N 37°57' E 023°35'0 0.0
2014-Nov-14 06:31N 37°57' E 023°35'0 0.0
2014-Nov-14 05:32N 37°57' E 023°35'0 0.0
2014-Nov-14 04:25N 37°57' E 023°35'0 0.0
2014-Nov-14 03:31N 37°57' E 023°35'0 0.0
2014-Nov-14 02:31N 37°57' E 023°35'0 0.0
2014-Nov-14 01:26N 37°57' E 023°35'0 0.0
2014-Nov-14 00:34N 37°57' E 023°35'0 0.0
2014-Nov-13 23:28N 37°57' E 023°35'0 0.1
2014-Nov-13 22:33N 37°57' E 023°34'0 0.0
2014-Nov-13 21:24N 37°57' E 023°34'0 0.0
2014-Nov-13 20:33N 37°57' E 023°35'0 0.1
2014-Nov-13 19:33N 37°57' E 023°34'0 0.0
2014-Nov-13 18:32N 37°57' E 023°34'5 5.6
2014-Nov-13 17:33N 37°52' E 023°38'1110.7
2014-Nov-13 16:33N 37°43' E 023°44'68 9.7
2014-Nov-13 09:33N 36°35' E 023°38'30 9.9
2014-Nov-13 06:33N 36°06' E 023°34'  
Track history (hours):
 
Tides and Currents Weather Stations Pressure Air Temp Water Temp Dewpoint Dewpoint Depression Visibility Wind Speed Wind Dir Waves Ship Positions

Menalon

Last reported at 2014-Nov-23 06:33 UTC. Time now 2014-Nov-23 07:34 UTC.
Position N 37°57' E 023°34'.

Length 83 m; draft 4 m.

Type: Ship (hazmat cat C). MMSI: 239741000.

Date/timePositionNaut miles runAvg speedWind from/ knotsBaromVisibWave heightAir tempDewpointWater temp
2014-Nov-23 06:33N 37°57' E 023°34'0 0.0
2014-Nov-23 05:34N 37°57' E 023°34'0 0.0
2014-Nov-23 04:34N 37°57' E 023°34'0 0.0
2014-Nov-23 03:33N 37°57' E 023°34'0 0.0
2014-Nov-23 02:33N 37°57' E 023°34'0 0.0
2014-Nov-23 01:33N 37°57' E 023°34'0 0.0
2014-Nov-23 00:33N 37°57' E 023°34'0 0.0
2014-Nov-22 23:33N 37°57' E 023°34'0 0.0
2014-Nov-22 22:33N 37°57' E 023°34'0 0.0
2014-Nov-22 21:33N 37°57' E 023°34'0 0.0
2014-Nov-22 20:33N 37°57' E 023°34'0 0.0
2014-Nov-22 19:34N 37°57' E 023°34'0 0.0
2014-Nov-22 18:33N 37°57' E 023°34'0 0.0
2014-Nov-22 17:33N 37°57' E 023°34'0 0.0
2014-Nov-22 16:34N 37°57' E 023°34'0 0.0
2014-Nov-22 15:33N 37°57' E 023°34'0 0.0
2014-Nov-22 14:33N 37°57' E 023°34'0 0.0
2014-Nov-22 13:34N 37°57' E 023°34'0 0.0
2014-Nov-22 12:34N 37°57' E 023°34'2 1.8
2014-Nov-22 11:34N 37°56' E 023°34'10 9.5
2014-Nov-22 10:33N 37°52' E 023°23'1210.4
2014-Nov-22 09:27N 37°54' E 023°08'2 2.7
2014-Nov-22 08:33N 37°55' E 023°05'0 0.0
2014-Nov-22 07:33N 37°55' E 023°05'0 0.0
2014-Nov-22 06:34N 37°55' E 023°05'0 0.0
2014-Nov-22 05:33N 37°55' E 023°05'0 0.0
2014-Nov-22 04:33N 37°55' E 023°05'0 0.0
2014-Nov-22 03:33N 37°55' E 023°05'0 0.0
2014-Nov-22 02:33N 37°55' E 023°05'0 0.0
2014-Nov-22 01:33N 37°55' E 023°05'0 0.0
2014-Nov-22 00:33N 37°55' E 023°05'12 1.0
2014-Nov-21 12:22N 37°53' E 023°20'810.1
2014-Nov-21 11:33N 37°53' E 023°30'2 1.7
2014-Nov-21 10:33N 37°52' E 023°32'0 0.0
2014-Nov-21 09:33N 37°52' E 023°32'0 0.0
2014-Nov-21 08:34N 37°52' E 023°32'0 0.0
2014-Nov-21 07:34N 37°52' E 023°32'0 0.3
2014-Nov-21 06:34N 37°51' E 023°32'6 6.1
2014-Nov-21 05:34N 37°57' E 023°35'0 0.3
2014-Nov-21 04:34N 37°57' E 023°34'0 0.0
2014-Nov-21 03:33N 37°57' E 023°34'0 0.0
2014-Nov-21 02:33N 37°57' E 023°34'0 0.0
2014-Nov-21 01:33N 37°57' E 023°34'0 0.0
2014-Nov-21 00:32N 37°57' E 023°34'0 0.0
2014-Nov-20 23:33N 37°57' E 023°34'0 0.0
2014-Nov-20 22:33N 37°57' E 023°34'0 0.0
2014-Nov-20 21:33N 37°57' E 023°34'0 0.0
2014-Nov-20 20:33N 37°57' E 023°34'0 0.0
2014-Nov-20 19:33N 37°57' E 023°34'0 0.0
2014-Nov-20 18:34N 37°57' E 023°34'0 0.0
2014-Nov-20 17:33N 37°57' E 023°34'0 0.0
2014-Nov-20 16:33N 37°57' E 023°34'0 0.0
2014-Nov-20 15:34N 37°57' E 023°34'2 1.6
2014-Nov-20 14:33N 37°57' E 023°36'0 0.1
2014-Nov-20 13:33N 37°58' E 023°36'0 0.0
2014-Nov-20 12:33N 37°58' E 023°36'1 0.9
2014-Nov-20 11:33N 37°57' E 023°36'1 0.8
2014-Nov-20 10:33N 37°57' E 023°34'0 0.0
2014-Nov-20 09:33N 37°57' E 023°35'0 0.0
2014-Nov-20 08:33N 37°57' E 023°35'5 5.4
2014-Nov-20 07:34N 37°52' E 023°32'0 0.0
2014-Nov-20 06:33N 37°52' E 023°32'5 5.1
2014-Nov-20 05:32N 37°57' E 023°35'1 0.5
2014-Nov-20 04:31N 37°57' E 023°35'0 0.0
2014-Nov-20 03:33N 37°57' E 023°35'0 0.0
2014-Nov-20 02:33N 37°57' E 023°35'0 0.1
2014-Nov-20 01:33N 37°57' E 023°35'0 0.0
2014-Nov-20 00:34N 37°57' E 023°35'0 0.0
2014-Nov-19 23:33N 37°57' E 023°35'0 0.0
2014-Nov-19 22:33N 37°57' E 023°35'0 0.0
2014-Nov-19 21:34N 37°57' E 023°34'0 0.0
2014-Nov-19 20:34N 37°57' E 023°34'0 0.0
2014-Nov-19 19:34N 37°57' E 023°34'0 0.0
2014-Nov-19 18:34N 37°57' E 023°34'0 0.0
2014-Nov-19 17:34N 37°57' E 023°34'0 0.1
2014-Nov-19 16:33N 37°57' E 023°34'0 0.0
2014-Nov-19 15:33N 37°57' E 023°34'0 0.0
2014-Nov-19 14:34N 37°57' E 023°34'0 0.0
2014-Nov-19 13:34N 37°57' E 023°34'0 0.0
2014-Nov-19 12:33N 37°57' E 023°34'0 0.0
2014-Nov-19 11:33N 37°57' E 023°34'0 0.0
2014-Nov-19 10:33N 37°57' E 023°34'0 0.0
2014-Nov-19 09:34N 37°57' E 023°34'0 0.0
2014-Nov-19 08:33N 37°57' E 023°34'0 0.0
2014-Nov-19 07:33N 37°57' E 023°34'0 0.0
2014-Nov-19 06:33N 37°57' E 023°34'0 0.0
2014-Nov-19 05:33N 37°57' E 023°34'0 0.0
2014-Nov-19 04:33N 37°57' E 023°34'0 0.0
2014-Nov-19 03:34N 37°57' E 023°34'0 0.0
2014-Nov-19 02:34N 37°57' E 023°34'0 0.0
2014-Nov-19 01:34N 37°57' E 023°34'0 0.0
2014-Nov-19 00:33N 37°57' E 023°34'0 0.0
2014-Nov-18 23:33N 37°57' E 023°34'0 0.0
2014-Nov-18 22:33N 37°57' E 023°34'0 0.0
2014-Nov-18 21:33N 37°57' E 023°34'0 0.0
2014-Nov-18 20:33N 37°57' E 023°34'0 0.0
2014-Nov-18 19:33N 37°57' E 023°34'1 0.9
2014-Nov-18 18:34N 37°56' E 023°35'4 4.3
2014-Nov-18 17:33N 37°52' E 023°33'0 0.0
2014-Nov-18 16:33N 37°52' E 023°33'0 0.0
2014-Nov-18 15:33N 37°52' E 023°33'0 0.0
2014-Nov-18 14:33N 37°52' E 023°33'0 0.0
2014-Nov-18 13:33N 37°52' E 023°33'0 0.0
2014-Nov-18 12:33N 37°52' E 023°33'3 3.1
2014-Nov-18 11:33N 37°55' E 023°34'2 2.1
2014-Nov-18 10:33N 37°57' E 023°35'0 0.0
2014-Nov-18 09:34N 37°57' E 023°35'0 0.1
2014-Nov-18 08:34N 37°57' E 023°35'0 0.1
2014-Nov-18 07:33N 37°57' E 023°35'0 0.1
2014-Nov-18 06:33N 37°57' E 023°35'1 0.7
2014-Nov-18 05:33N 37°57' E 023°34'0 0.0
2014-Nov-18 04:32N 37°57' E 023°34'0 0.0
2014-Nov-18 03:33N 37°57' E 023°34'0 0.0
2014-Nov-18 02:33N 37°57' E 023°34'3 2.8
2014-Nov-18 01:33N 37°55' E 023°33'9 9.4
2014-Nov-18 00:34N 37°52' E 023°22'1210.2
2014-Nov-17 23:24N 37°54' E 023°07'2 0.3
2014-Nov-17 18:09N 37°55' E 023°05'0 0.0
2014-Nov-17 17:19N 37°55' E 023°05'0 0.0
2014-Nov-17 16:34N 37°55' E 023°05'0 0.0
2014-Nov-17 15:33N 37°55' E 023°05'0 0.0
2014-Nov-17 14:33N 37°55' E 023°05'0 0.0
2014-Nov-17 13:33N 37°55' E 023°05'0 0.0
2014-Nov-17 12:33N 37°55' E 023°05'0 0.0
2014-Nov-17 11:33N 37°55' E 023°05'0 0.0
2014-Nov-17 10:33N 37°55' E 023°05'0 0.0
2014-Nov-17 09:33N 37°55' E 023°05'0 0.0
2014-Nov-17 08:31N 37°55' E 023°05'12 5.3
2014-Nov-17 06:21N 37°53' E 023°20'810.1
2014-Nov-17 05:33N 37°53' E 023°30'6 6.0
2014-Nov-17 04:33N 37°57' E 023°34'0 0.0
2014-Nov-17 03:33N 37°57' E 023°34'0 0.0
2014-Nov-17 02:33N 37°57' E 023°34'0 0.0
2014-Nov-17 01:34N 37°57' E 023°34'0 0.0
2014-Nov-17 00:33N 37°57' E 023°34'0 0.0
2014-Nov-16 23:34N 37°57' E 023°34'0 0.0
2014-Nov-16 22:33N 37°57' E 023°34'0 0.0
2014-Nov-16 21:33N 37°57' E 023°34'0 0.0
2014-Nov-16 20:33N 37°57' E 023°34'0 0.0
2014-Nov-16 19:34N 37°57' E 023°34'0 0.0
2014-Nov-16 18:33N 37°57' E 023°34'0 0.0
2014-Nov-16 17:33N 37°57' E 023°35'0 0.0
2014-Nov-16 16:34N 37°57' E 023°35'0 0.0
2014-Nov-16 15:33N 37°57' E 023°34'0 0.0
2014-Nov-16 14:33N 37°57' E 023°34'0 0.0
2014-Nov-16 13:33N 37°57' E 023°35'0 0.0
2014-Nov-16 12:33N 37°57' E 023°35'0 0.0
2014-Nov-16 11:33N 37°57' E 023°35'0 0.0
2014-Nov-16 10:33N 37°57' E 023°35'0 0.0
2014-Nov-16 09:33N 37°57' E 023°34'0 0.0
2014-Nov-16 08:33N 37°57' E 023°34'0 0.0
2014-Nov-16 07:33N 37°57' E 023°34'0 0.1
2014-Nov-16 06:33N 37°57' E 023°35'0 0.0
2014-Nov-16 05:33N 37°57' E 023°35'0 0.0
2014-Nov-16 04:33N 37°57' E 023°34'0 0.0
2014-Nov-16 03:33N 37°57' E 023°34'0 0.0
2014-Nov-16 02:34N 37°57' E 023°35'0 0.0
2014-Nov-16 01:34N 37°57' E 023°34'0 0.0
2014-Nov-16 00:33N 37°57' E 023°34'0 0.0
2014-Nov-15 23:33N 37°57' E 023°34'0 0.0
2014-Nov-15 22:34N 37°57' E 023°35'0 0.0
2014-Nov-15 21:33N 37°57' E 023°35'0 0.0
2014-Nov-15 20:33N 37°57' E 023°35'0 0.0
2014-Nov-15 19:33N 37°57' E 023°35'0 0.0
2014-Nov-15 18:33N 37°57' E 023°35'0 0.0
2014-Nov-15 17:33N 37°57' E 023°35'0 0.0
2014-Nov-15 16:33N 37°57' E 023°35'0 0.0
2014-Nov-15 15:33N 37°57' E 023°35'0 0.0
2014-Nov-15 14:33N 37°57' E 023°35'0 0.0
2014-Nov-15 13:33N 37°57' E 023°35'0 0.0
2014-Nov-15 12:33N 37°57' E 023°35'0 0.0
2014-Nov-15 11:33N 37°57' E 023°35'0 0.0
2014-Nov-15 10:33N 37°57' E 023°35'0 0.0
2014-Nov-15 09:33N 37°57' E 023°35'0 0.0
2014-Nov-15 08:33N 37°57' E 023°35'0 0.0
2014-Nov-15 07:34N 37°57' E 023°35'0 0.0
2014-Nov-15 06:34N 37°57' E 023°35'0 0.0
2014-Nov-15 05:33N 37°57' E 023°35'0 0.0
2014-Nov-15 04:33N 37°57' E 023°35'0 0.0
2014-Nov-15 03:34N 37°57' E 023°35'0 0.0
2014-Nov-15 02:33N 37°57' E 023°35'0 0.0
2014-Nov-15 01:34N 37°57' E 023°35'0 0.0
2014-Nov-15 00:33N 37°57' E 023°35'0 0.0
2014-Nov-14 23:34N 37°57' E 023°35'0 0.0
2014-Nov-14 22:33N 37°57' E 023°35'0 0.0
2014-Nov-14 21:34N 37°57' E 023°35'0 0.0
2014-Nov-14 20:33N 37°57' E 023°35'0 0.0
2014-Nov-14 19:33N 37°57' E 023°35'0 0.0
2014-Nov-14 18:33N 37°57' E 023°35'0 0.0
2014-Nov-14 17:33N 37°57' E 023°35'0 0.0
2014-Nov-14 16:33N 37°57' E 023°35'0 0.0
2014-Nov-14 15:33N 37°57' E 023°35'0 0.0
2014-Nov-14 14:33N 37°57' E 023°35'0 0.0
2014-Nov-14 12:33N 37°57' E 023°35'0 0.0
2014-Nov-14 11:31N 37°57' E 023°35'0 0.0
2014-Nov-14 10:32N 37°57' E 023°35'0 0.0
2014-Nov-14 09:33N 37°57' E 023°35'0 0.0
2014-Nov-14 08:33N 37°57' E 023°35'0 0.0
2014-Nov-14 07:33N 37°57' E 023°35'0 0.0
2014-Nov-14 06:31N 37°57' E 023°35'0 0.0
2014-Nov-14 05:32N 37°57' E 023°35'0 0.0
2014-Nov-14 04:25N 37°57' E 023°35'0 0.0
2014-Nov-14 03:31N 37°57' E 023°35'0 0.0
2014-Nov-14 02:31N 37°57' E 023°35'0 0.0
2014-Nov-14 01:26N 37°57' E 023°35'0 0.0
2014-Nov-14 00:34N 37°57' E 023°35'0 0.0
2014-Nov-13 23:28N 37°57' E 023°35'0 0.1
2014-Nov-13 22:33N 37°57' E 023°34'0 0.0
2014-Nov-13 21:24N 37°57' E 023°34'0 0.0
2014-Nov-13 20:33N 37°57' E 023°35'0 0.1
2014-Nov-13 19:33N 37°57' E 023°34'0 0.0
2014-Nov-13 18:32N 37°57' E 023°34'5 5.6
2014-Nov-13 17:33N 37°52' E 023°38'1110.7
2014-Nov-13 16:33N 37°43' E 023°44'68 9.7
2014-Nov-13 09:33N 36°35' E 023°38'30 9.9
2014-Nov-13 06:33N 36°06' E 023°34'  

Dump ship's entire track history